Time;durP1;ratioP1;P1;durP2;ratioP2;P2;SDS_P1;SDS_P2;PMS_P1;PMS_P2;Temp;Humidity;BMP_temperature;BMP_pressure;BME280_temperature;BME280_humidity;BME280_pressure;Samples;Min_cycle;Max_cycle;Signal;HPM_P1;HPM_P2
2021/12/12 00:04:39;;;;;;;13.60;6.72;;;;;;;3.92;100.00;101242.59;8322793;28;20535;-62
2021/12/12 00:08:43;;;;;;;22.55;6.72;;;;;;;4.07;100.00;101246.25;8319867;28;20037;-63
2021/12/12 00:12:51;;;;;;;15.88;7.32;;;;;;;4.26;100.00;101238.09;8312654;28;20435;-62
2021/12/12 00:16:54;;;;;;;18.27;6.53;;;;;;;4.47;100.00;101234.25;8334646;28;20041;-62
2021/12/12 00:20:54;;;;;;;21.55;6.50;;;;;;;4.54;100.00;101241.84;8352224;28;20033;-62
2021/12/12 00:24:55;;;;;;;13.45;5.35;;;;;;;4.67;100.00;101242.88;8349953;28;20048;-63
2021/12/12 00:28:56;;;;;;;12.85;5.53;;;;;;;4.67;100.00;101248.25;8331195;28;20052;-62
2021/12/12 00:32:56;;;;;;;14.48;6.07;;;;;;;4.63;100.00;101252.06;8335719;28;20034;-62
2021/12/12 00:36:57;;;;;;;14.45;5.65;;;;;;;4.58;100.00;101243.44;8312747;28;20041;-62
2021/12/12 00:41:04;;;;;;;19.55;5.78;;;;;;;4.49;100.00;101237.72;8351726;28;20515;-62
2021/12/12 00:45:09;;;;;;;15.15;5.53;;;;;;;4.46;100.00;101251.28;8319441;28;20078;-62
2021/12/12 00:49:11;;;;;;;16.98;6.53;;;;;;;4.45;100.00;101246.88;8331318;28;20042;-62
2021/12/12 00:53:13;;;;;;;15.70;5.53;;;;;;;4.47;100.00;101243.16;8350869;28;20041;-62
2021/12/12 00:57:17;;;;;;;14.07;6.15;;;;;;;4.56;100.00;101249.81;8349474;28;20057;-62
2021/12/12 01:01:24;;;;;;;16.67;5.65;;;;;;;4.61;100.00;101247.75;8349548;28;20041;-62
2021/12/12 01:05:26;;;;;;;14.93;5.13;;;;;;;4.68;100.00;101238.41;8351363;28;20392;-62
2021/12/12 01:09:31;;;;;;;16.92;5.47;;;;;;;4.66;100.00;101226.94;8350767;28;20170;-62
2021/12/12 01:13:32;;;;;;;14.32;5.70;;;;;;;4.68;100.00;101227.69;8326258;28;20044;-62
2021/12/12 01:17:41;;;;;;;13.35;5.50;;;;;;;4.79;100.00;101225.28;8305459;28;20072;-62
2021/12/12 01:21:47;;;;;;;10.10;5.15;;;;;;;4.83;100.00;101216.13;8314186;28;20165;-62
2021/12/12 01:25:48;;;;;;;16.00;5.13;;;;;;;4.83;100.00;101226.84;8296211;28;20045;-62
2021/12/12 01:29:49;;;;;;;13.07;5.30;;;;;;;4.85;100.00;101212.41;8313341;28;20045;-62
2021/12/12 01:33:58;;;;;;;10.00;5.40;;;;;;;4.94;100.00;101224.41;8304896;28;20038;-62
2021/12/12 01:39:04;;;;;;;10.45;4.90;;;;;;;5.06;100.00;101213.00;8308097;28;20524;-62
2021/12/12 01:42:30;;;;;;;16.38;5.13;;;;;;;5.07;100.00;101214.72;8313188;28;20045;-62
2021/12/12 01:46:37;;;;;;;12.80;4.63;;;;;;;5.07;100.00;101214.72;8302846;28;20099;-63
2021/12/12 01:50:41;;;;;;;9.70;4.65;;;;;;;5.13;100.00;101225.09;8301449;28;20430;-62
2021/12/12 01:54:45;;;;;;;10.93;4.95;;;;;;;5.21;100.00;101222.81;8311700;28;20064;-62
2021/12/12 01:58:50;;;;;;;10.25;5.35;;;;;;;5.21;100.00;101217.44;8314206;28;20095;-62
2021/12/12 02:02:52;;;;;;;15.98;4.82;;;;;;;5.17;100.00;101211.41;8317276;28;20047;-62
2021/12/12 02:06:54;;;;;;;11.98;5.15;;;;;;;5.22;100.00;101213.81;8318998;28;20072;-62
2021/12/12 02:10:58;;;;;;;7.60;4.38;;;;;;;5.23;100.00;101215.53;8303565;28;20494;-62
2021/12/12 02:14:59;;;;;;;11.43;4.78;;;;;;;5.24;100.00;101206.53;8306221;28;20042;-62
2021/12/12 02:19:00;;;;;;;14.98;4.97;;;;;;;5.31;100.00;101202.56;8297841;28;20554;-62
2021/12/12 02:23:14;;;;;;;8.30;4.57;;;;;;;5.41;100.00;101203.75;8295938;28;20373;-63
2021/12/12 02:35:56;;;;;;;10.20;4.63;;;;;;;5.43;100.00;101191.13;8293080;28;20382;-63
2021/12/12 02:39:57;;;;;;;13.60;4.60;;;;;;;5.43;100.00;101186.59;8294262;28;20030;-62
2021/12/12 02:44:01;;;;;;;9.88;4.32;;;;;;;5.53;100.00;101181.56;8295091;28;20038;-63
2021/12/12 02:48:05;;;;;;;16.60;3.90;;;;;;;5.63;100.00;101185.41;8286017;28;20045;-62
2021/12/12 02:52:08;;;;;;;;;;;;;;;5.68;100.00;101188.69;8308332;28;20591;-63
2021/12/12 02:56:15;;;;;;;14.82;4.20;;;;;;;5.71;100.00;101177.75;8324821;28;19923;-62
2021/12/12 03:00:18;;;;;;;10.23;4.18;;;;;;;5.75;100.00;101177.47;8310979;28;20060;-62
2021/12/12 03:04:19;;;;;;;10.23;4.20;;;;;;;5.82;100.00;101177.97;8304072;28;20045;-62
2021/12/12 03:08:20;;;;;;;8.73;3.83;;;;;;;5.90;100.00;101170.31;8307161;28;20069;-62
2021/12/12 03:12:31;;;;;;;9.73;3.97;;;;;;;5.96;100.00;101172.63;8312663;28;20041;-63
2021/12/12 03:16:32;;;;;;;14.45;4.35;;;;;;;6.06;100.00;101179.16;8315383;28;20037;-62
2021/12/12 03:20:37;;;;;;;15.57;4.93;;;;;;;6.09;100.00;101170.91;8305744;28;20041;-63
2021/12/12 03:24:38;;;;;;;10.85;3.83;;;;;;;6.17;100.00;101173.97;8307994;28;20515;-63
2021/12/12 03:28:41;;;;;;;10.50;4.00;;;;;;;6.25;100.00;101174.34;8325433;28;20091;-63
2021/12/12 03:32:41;;;;;;;14.68;4.05;;;;;;;6.17;100.00;101176.66;8323738;28;20030;-63
2021/12/12 03:36:44;;;;;;;8.82;3.50;;;;;;;6.22;100.00;101177.22;8325181;28;20039;-63
2021/12/12 03:40:45;;;;;;;15.40;4.20;;;;;;;6.28;100.00;101179.50;8325239;28;20451;-63
2021/12/12 03:44:47;;;;;;;17.60;4.88;;;;;;;6.33;100.00;101174.72;8330161;28;20045;-62
2021/12/12 03:48:48;;;;;;;14.50;4.25;;;;;;;6.46;100.00;101181.03;8324892;28;20048;-63
2021/12/12 03:52:49;;;;;;;13.98;4.25;;;;;;;6.53;100.00;101176.13;8324464;28;20037;-63
2021/12/12 03:56:50;;;;;;;14.02;4.57;;;;;;;6.52;100.00;101177.94;8324428;28;20556;-63
2021/12/12 04:00:58;;;;;;;12.68;4.82;;;;;;;6.57;100.00;101183.91;8322814;28;20164;-63
2021/12/12 04:04:59;;;;;;;10.60;4.43;;;;;;;6.61;100.00;101193.47;8312118;28;20045;-63
2021/12/12 04:09:00;;;;;;;15.63;5.28;;;;;;;6.52;100.00;101191.38;8312527;28;20048;-63
2021/12/12 04:13:01;;;;;;;13.65;5.70;;;;;;;6.50;100.00;101187.06;8307951;28;20500;-63
2021/12/12 04:17:07;;;;;;;11.02;4.40;;;;;;;6.48;100.00;101188.97;8299099;28;20505;-63
2021/12/12 04:21:08;;;;;;;11.77;4.07;;;;;;;6.46;100.00;101186.41;8308001;28;20037;-63
2021/12/12 04:25:09;;;;;;;10.20;4.95;;;;;;;6.49;100.00;101188.88;8301562;28;20069;-63
2021/12/12 04:29:17;;;;;;;12.07;4.85;;;;;;;6.53;100.00;101184.19;8309300;28;20487;-63
2021/12/12 04:33:17;;;;;;;25.00;6.15;;;;;;;6.53;100.00;101176.13;8315088;28;20037;-63
2021/12/12 04:37:18;;;;;;;13.63;4.93;;;;;;;6.53;100.00;101185.06;8318659;28;20041;-62
2021/12/12 04:41:22;;;;;;;14.65;4.65;;;;;;;6.59;100.00;101181.94;8302859;28;20056;-62
2021/12/12 04:46:06;;;;;;;11.40;4.68;;;;;;;6.62;100.00;101178.22;8291910;28;20405;-62
2021/12/12 04:50:13;;;;;;;;;;;;;;;6.63;100.00;101183.50;8295016;28;20038;-62
2021/12/12 04:58:54;;;;;;;11.02;4.60;;;;;;;6.59;100.00;101176.56;8306742;28;20476;-62
2021/12/12 05:03:22;;;;;;;14.23;5.35;;;;;;;6.63;100.00;101175.44;8288932;28;20149;-62
2021/12/12 05:08:04;;;;;;;16.02;5.18;;;;;;;6.62;100.00;101175.53;8287296;28;20041;-62
2021/12/12 05:12:33;;;;;;;17.13;6.10;;;;;;;6.63;100.00;101167.38;8286694;28;20092;-62
2021/12/12 05:16:39;;;;;;;20.75;6.03;;;;;;;6.63;100.00;101172.75;8316912;28;20033;-62
2021/12/12 05:20:46;;;;;;;17.63;5.43;;;;;;;6.64;100.00;101169.09;8331881;28;20100;-62
2021/12/12 05:24:50;;;;;;;16.08;4.60;;;;;;;6.68;100.00;101170.59;8340479;28;20045;-62
2021/12/12 05:28:59;;;;;;;;;;;;;;;6.73;100.00;101173.88;8341227;28;20489;-62
2021/12/12 05:33:01;;;;;;;19.73;6.10;;;;;;;6.73;100.00;101165.81;8327725;28;19918;-62
2021/12/12 05:37:03;;;;;;;13.07;5.40;;;;;;;6.72;100.00;101166.78;8334265;28;20048;-62
2021/12/12 05:41:06;;;;;;;18.20;5.32;;;;;;;6.67;100.00;101163.53;8323187;28;20523;-62
2021/12/12 05:45:08;;;;;;;15.88;5.82;;;;;;;6.65;100.00;101160.06;8330651;28;20049;-61
2021/12/12 05:49:10;;;;;;;14.40;5.78;;;;;;;6.70;100.00;101168.69;8319098;28;20034;-61
2021/12/12 05:53:13;;;;;;;16.33;5.00;;;;;;;6.70;100.00;101163.31;8325961;28;20540;-61
2021/12/12 05:57:17;;;;;;;12.88;4.85;;;;;;;6.71;100.00;101165.03;8312059;28;20398;-61
2021/12/12 06:01:19;;;;;;;13.70;4.83;;;;;;;6.73;100.00;101168.50;8314596;28;20045;-61
2021/12/12 06:05:20;;;;;;;17.70;4.72;;;;;;;6.76;100.00;101170.97;8318673;28;20053;-61
2021/12/12 06:09:21;;;;;;;14.70;5.80;;;;;;;6.77;100.00;101170.00;8310833;28;20065;-61
2021/12/12 06:13:23;;;;;;;11.48;5.15;;;;;;;6.81;100.00;101171.56;8327555;28;20092;-61
2021/12/12 06:17:25;;;;;;;12.57;4.65;;;;;;;6.82;100.00;101161.66;8328656;28;20400;-61
2021/12/12 06:21:26;;;;;;;15.82;4.15;;;;;;;6.83;100.00;101169.59;8305487;28;20042;-61
2021/12/12 06:25:26;;;;;;;11.40;4.10;;;;;;;6.87;100.00;101167.59;8297505;28;20045;-61
2021/12/12 06:29:27;;;;;;;14.32;4.50;;;;;;;6.92;100.00;101163.63;8296664;28;20034;-61
2021/12/12 06:33:29;;;;;;;13.73;4.57;;;;;;;6.98;100.00;101168.59;8316054;28;20096;-61
2021/12/12 06:37:29;;;;;;;6.53;2.83;;;;;;;7.07;100.00;101167.97;8301681;28;20034;-61
2021/12/12 06:41:30;;;;;;;8.82;2.90;;;;;;;7.02;100.00;101164.72;8297162;28;20133;-61
2021/12/12 06:45:31;;;;;;;6.53;2.63;;;;;;;7.05;100.00;101166.38;8293484;28;20026;-62
2021/12/12 06:49:32;;;;;;;8.57;3.22;;;;;;;7.00;100.00;101169.38;8290677;28;20041;-62
2021/12/12 06:53:35;;;;;;;9.57;2.95;;;;;;;7.03;100.00;101179.03;8313185;28;20069;-62
2021/12/12 06:57:36;;;;;;;7.05;2.08;;;;;;;7.10;100.00;101183.91;8314074;28;20520;-62
2021/12/12 07:01:37;;;;;;;3.28;2.20;;;;;;;7.15;100.00;101175.53;8311354;28;20552;-61
2021/12/12 07:05:38;;;;;;;3.65;1.70;;;;;;;7.21;100.00;101170.63;8292167;28;20065;-61
2021/12/12 07:09:39;;;;;;;2.50;1.67;;;;;;;7.20;100.00;101179.63;8316320;28;20037;-61
2021/12/12 07:13:40;;;;;;;2.80;1.83;;;;;;;7.32;100.00;101177.97;8313828;28;20045;-61
2021/12/12 07:17:41;;;;;;;9.57;4.25;;;;;;;7.34;100.00;101176.00;8311937;28;20072;-61
2021/12/12 07:21:44;;;;;;;2.05;1.50;;;;;;;7.22;100.00;101187.59;8314246;28;20037;-61
2021/12/12 07:25:46;;;;;;;2.92;1.77;;;;;;;7.20;100.00;101181.47;8311679;28;20056;-61
2021/12/12 07:29:47;;;;;;;4.72;3.10;;;;;;;7.23;100.00;101189.34;8289825;28;20049;-61
2021/12/12 07:33:50;;;;;;;8.05;3.97;;;;;;;7.24;100.00;101191.94;8298302;28;20048;-61
2021/12/12 07:37:52;;;;;;;4.50;2.25;;;;;;;7.31;100.00;101185.16;8314908;28;20052;-61
2021/12/12 07:41:54;;;;;;;3.90;2.08;;;;;;;7.32;100.00;101186.88;8301214;28;20579;-61
2021/12/12 07:45:55;;;;;;;3.00;1.48;;;;;;;7.28;100.00;101177.31;8300538;28;20501;-61
2021/12/12 07:49:57;;;;;;;2.28;1.60;;;;;;;7.33;100.00;101168.91;8323143;28;20037;-61
2021/12/12 07:54:01;;;;;;;4.85;1.75;;;;;;;7.34;100.00;101168.81;8306373;28;20532;-61
2021/12/12 07:58:13;;;;;;;2.78;1.83;;;;;;;7.36;100.00;101177.66;8293453;28;20042;-62
2021/12/12 08:02:16;;;;;;;5.20;3.70;;;;;;;7.39;100.00;101179.25;8260850;28;20042;-61
2021/12/12 08:06:17;;;;;;;3.65;2.58;;;;;;;7.39;100.00;101179.25;8263156;28;20038;-61
2021/12/12 08:10:17;;;;;;;2.10;1.38;;;;;;;7.36;100.00;101192.91;8272508;28;20049;-61
2021/12/12 08:14:21;;;;;;;4.22;2.67;;;;;;;7.46;100.00;101192.19;8315220;28;20042;-62
2021/12/12 08:18:23;;;;;;;2.20;1.80;;;;;;;7.55;100.00;101183.50;8319564;28;20038;-61
2021/12/12 08:22:25;;;;;;;4.45;3.40;;;;;;;7.53;100.00;101201.56;8304077;28;20053;-61
2021/12/12 08:26:26;;;;;;;3.45;1.15;;;;;;;7.48;100.00;101217.16;8294214;28;20033;-61
2021/12/12 08:30:28;;;;;;;3.60;1.00;;;;;;;7.52;100.00;101217.81;8298840;28;20480;-61
2021/12/12 08:34:30;;;;;;;3.70;1.75;;;;;;;7.61;100.00;101220.75;8293030;28;20038;-61
2021/12/12 08:38:31;;;;;;;1.80;1.17;;;;;;;7.76;100.00;101233.16;8305976;28;20125;-61
2021/12/12 08:42:32;;;;;;;1.23;0.80;;;;;;;7.91;100.00;101232.09;8291945;28;20038;-62
2021/12/12 08:46:33;;;;;;;2.20;1.73;;;;;;;8.00;100.00;101227.91;8294643;28;20045;-62
2021/12/12 08:50:36;;;;;;;1.23;0.70;;;;;;;8.20;100.00;101218.44;8305533;28;20095;-62
2021/12/12 08:54:40;;;;;;;0.57;0.40;;;;;;;8.32;100.00;101214.91;8308290;28;20091;-62
2021/12/12 08:58:40;;;;;;;0.63;0.55;;;;;;;8.44;100.00;101225.63;8293963;28;20516;-62
2021/12/12 09:02:41;;;;;;;1.92;0.57;;;;;;;8.56;100.00;101218.50;8291880;28;20034;-63
2021/12/12 09:06:53;;;;;;;0.73;0.50;;;;;;;8.62;100.00;101223.44;8307231;28;20038;-62
2021/12/12 09:11:02;;;;;;;3.25;0.50;;;;;;;8.68;100.00;101229.25;8291798;28;20401;-62
2021/12/12 09:15:15;;;;;;;1.25;0.60;;;;;;;8.71;100.00;101238.94;8320593;28;20112;-64
2021/12/12 09:19:24;;;;;;;3.33;0.80;;;;;;;8.72;100.00;101240.69;8311930;28;20050;-65
2021/12/12 09:23:34;;;;;;;1.50;0.75;;;;;;;8.84;100.00;101234.41;8293698;28;20034;-65
2021/12/12 09:27:40;;;;;;;2.97;0.80;;;;;;;8.74;100.00;101244.13;8285654;28;20034;-65
2021/12/12 09:31:49;;;;;;;1.48;0.50;;;;;;;8.88;100.00;101235.91;8291005;28;20038;-65
2021/12/12 09:36:11;;;;;;;2.65;0.70;;;;;;;8.98;100.00;101245.03;8272658;28;20501;-65
2021/12/12 09:40:48;;;;;;;2.25;1.08;;;;;;;9.09;100.00;101245.13;8290270;28;20041;-65
2021/12/12 09:45:28;;;;;;;3.70;0.75;;;;;;;9.16;100.00;101251.78;8290610;28;20396;-65
2021/12/12 09:51:24;;;;;;;1.75;0.50;;;;;;;9.25;100.00;101234.91;8292787;28;20034;-65
2021/12/12 09:54:40;;;;;;;1.05;0.52;;;;;;;9.29;100.00;101239.09;8281276;28;20440;-65
2021/12/12 09:58:54;;;;;;;1.73;0.70;;;;;;;9.39;100.00;101229.31;8283677;28;20072;-66
2021/12/12 10:03:15;;;;;;;;;;;;;;;9.43;100.00;101228.13;8286684;28;20483;-66
2021/12/12 10:07:33;;;;;;;3.13;1.23;;;;;;;9.57;100.00;101219.81;8293079;28;20452;-66
2021/12/12 10:11:43;;;;;;;1.90;1.08;;;;;;;9.66;100.00;101221.81;8293255;28;20042;-66
2021/12/12 10:15:49;;;;;;;1.52;1.10;;;;;;;9.68;100.00;101223.44;8280850;28;20026;-66
2021/12/12 10:20:14;;;;;;;5.30;2.78;;;;;;;9.70;100.00;101226.03;8291238;28;20565;-66
2021/12/12 10:24:35;;;;;;;4.05;2.50;;;;;;;9.79;100.00;101222.63;8291417;28;20403;-66
2021/12/12 10:28:58;;;;;;;7.15;2.63;;;;;;;9.75;100.00;101224.69;8291387;28;20065;-66
2021/12/12 10:33:27;;;;;;;3.93;2.27;;;;;;;9.64;100.00;101226.50;8291111;28;20393;-66
2021/12/12 10:37:33;;;;;;;1.67;0.93;;;;;;;9.77;100.00;101228.13;8292542;28;20084;-66
2021/12/12 10:41:56;;;;;;;5.68;0.88;;;;;;;9.76;100.00;101230.97;8292334;28;20038;-66
2021/12/12 10:46:05;;;;;;;4.60;1.10;;;;;;;9.77;100.00;101238.06;8290429;28;20042;-66
2021/12/12 10:54:41;;;;;;;4.40;0.90;;;;;;;9.81;100.00;101250.34;8400022;27;20753;-64
2021/12/12 10:58:49;;;;;;;1.27;0.80;;;;;;;9.80;100.00;101249.47;8363128;28;20043;-64
2021/12/12 11:03:16;;;;;;;1.67;0.80;;;;;;;9.87;100.00;101244.47;8378342;28;20045;-65
2021/12/12 11:07:23;;;;;;;1.65;1.00;;;;;;;9.87;100.00;101239.06;8374430;28;20039;-65
2021/12/12 11:11:31;;;;;;;4.15;1.00;;;;;;;10.08;100.00;101240.16;8394644;28;20040;-65
2021/12/12 11:15:40;;;;;;;2.60;0.80;;;;;;;10.12;100.00;101236.22;8377946;28;20500;-65
2021/12/12 11:20:05;;;;;;;3.50;1.10;;;;;;;10.18;100.00;101238.44;8382125;28;20144;-65
2021/12/12 11:24:13;;;;;;;1.55;0.98;;;;;;;10.17;100.00;101241.25;8367097;28;20028;-65
2021/12/12 11:28:27;;;;;;;2.17;1.50;;;;;;;10.03;100.00;101245.00;8333420;28;20037;-65
2021/12/12 11:32:34;;;;;;;4.55;2.83;;;;;;;10.04;100.00;101246.75;8367136;28;20036;-65
2021/12/12 11:36:59;;;;;;;5.20;2.30;;;;;;;10.12;100.00;101251.59;8353879;28;20056;-65
2021/12/12 11:41:10;;;;;;;5.78;2.35;;;;;;;10.15;100.00;101259.44;8381316;28;20035;-65
2021/12/12 11:45:23;;;;;;;5.15;1.60;;;;;;;10.11;100.00;101253.41;8381076;28;20044;-65
2021/12/12 11:49:31;;;;;;;4.82;1.70;;;;;;;10.19;100.00;101256.38;8381820;28;20033;-65
2021/12/12 11:53:43;;;;;;;4.10;1.40;;;;;;;10.14;100.00;101258.59;8380794;28;20045;-65
2021/12/12 11:58:23;;;;;;;5.28;3.75;;;;;;;10.13;100.00;101256.00;8380257;28;20040;-65
2021/12/12 12:02:37;;;;;;;4.88;2.70;;;;;;;10.04;100.00;101257.56;8359195;28;20099;-65
2021/12/12 12:06:58;;;;;;;3.45;2.28;;;;;;;9.97;100.00;101256.28;8342379;28;20038;-65
2021/12/12 12:15:54;;;;;;;6.53;1.85;;;;;;;9.96;100.00;101259.97;8403358;27;20392;-64
2021/12/12 12:20:10;;;;;;;3.33;1.85;;;;;;;9.91;100.00;101262.16;8360681;28;20435;-65
2021/12/12 12:24:21;;;;;;;2.58;1.33;;;;;;;9.95;100.00;101263.66;8365375;28;20037;-65
2021/12/12 12:28:28;;;;;;;10.57;4.55;;;;;;;9.98;100.00;101263.44;8391083;28;20043;-65
2021/12/12 12:33:08;;;;;;;2.80;2.00;;;;;;;9.94;100.00;101268.19;8379358;28;20045;-65
2021/12/12 12:37:48;;;;;;;3.22;2.17;;;;;;;10.04;100.00;101262.94;8393679;28;20038;-65
2021/12/12 12:42:28;;;;;;;9.13;5.80;;;;;;;9.98;100.00;101268.81;8393418;28;20056;-65
2021/12/12 12:47:08;;;;;;;27.63;15.32;;;;;;;9.91;100.00;101262.16;8393354;28;20056;-65
2021/12/12 12:51:49;;;;;;;3.97;1.42;;;;;;;9.93;100.00;101266.47;8392261;28;20048;-65
2021/12/12 12:56:10;;;;;;;2.72;2.25;;;;;;;9.94;100.00;101267.31;8393498;28;20068;-61
2021/12/12 13:00:16;;;;;;;5.25;2.05;;;;;;;9.97;100.00;101267.09;8366492;28;20451;-61
2021/12/12 13:04:26;;;;;;;4.43;2.10;;;;;;;10.03;100.00;101277.41;8341152;28;20047;-61
2021/12/12 13:08:52;;;;;;;5.47;2.90;;;;;;;10.06;100.00;101270.94;8355100;28;20431;-62
2021/12/12 13:17:54;;;;;;;4.10;1.58;;;;;;;10.00;100.00;101272.25;8344021;27;20396;-62
2021/12/12 13:22:34;;;;;;;4.40;1.65;;;;;;;9.90;100.00;101282.06;8343687;28;20090;-61
2021/12/12 13:31:13;;;;;;;6.15;2.80;;;;;;;9.91;100.00;101268.44;8312126;27;20381;-61
2021/12/12 13:35:26;;;;;;;5.03;3.15;;;;;;;9.88;100.00;101278.59;8287471;28;20458;-60
2021/12/12 13:44:03;;;;;;;8.48;4.15;;;;;;;9.85;100.00;101278.81;8347340;27;21075;-63
2021/12/12 13:48:40;;;;;;;5.53;4.68;;;;;;;9.98;100.00;101285.03;8347211;28;20041;-63
2021/12/12 13:53:04;;;;;;;7.85;4.25;;;;;;;10.11;100.00;101285.84;8338216;28;20060;-64
2021/12/12 13:57:28;;;;;;;13.35;7.03;;;;;;;10.09;100.00;101287.78;8337511;28;20033;-63
2021/12/12 14:01:39;;;;;;;5.07;4.32;;;;;;;10.13;100.00;101278.47;8332598;28;20034;-64
2021/12/12 14:05:44;;;;;;;6.75;3.17;;;;;;;10.07;100.00;101284.38;8342110;28;20037;-64
2021/12/12 14:09:48;;;;;;;28.00;16.17;;;;;;;10.12;100.00;101289.41;8342863;28;20037;-64
2021/12/12 14:13:51;;;;;;;7.43;5.22;;;;;;;10.03;100.00;101293.63;8327192;28;20041;-63
2021/12/12 14:17:57;;;;;;;8.80;5.90;;;;;;;10.00;100.00;101301.97;8354221;28;20308;-64
2021/12/12 14:21:59;;;;;;;8.88;4.85;;;;;;;10.00;100.00;101296.56;8344851;28;20448;-64
2021/12/12 14:26:06;;;;;;;9.25;5.10;;;;;;;9.91;100.00;101299.97;8377043;28;20500;-64
2021/12/12 14:30:10;;;;;;;6.57;3.42;;;;;;;10.02;100.00;101302.72;8376921;28;20044;-64
2021/12/12 14:34:16;;;;;;;5.07;3.90;;;;;;;9.96;100.00;101298.66;8348366;28;20049;-64
2021/12/12 14:38:19;;;;;;;8.93;5.00;;;;;;;9.98;100.00;101302.09;8376880;28;20045;-64
2021/12/12 14:42:24;;;;;;;7.53;4.05;;;;;;;9.91;100.00;101308.06;8374733;28;20120;-64
2021/12/12 14:46:40;;;;;;;5.50;3.70;;;;;;;9.87;100.00;101314.69;8371313;28;20419;-64
2021/12/12 14:50:51;;;;;;;7.60;4.90;;;;;;;9.85;100.00;101306.72;8372645;28;20037;-64
2021/12/12 14:55:00;;;;;;;3.70;2.97;;;;;;;9.90;100.00;101319.88;8347445;28;20030;-64
2021/12/12 14:59:06;;;;;;;3.00;1.95;;;;;;;9.92;100.00;101318.75;8352457;28;20115;-64
2021/12/12 15:03:11;;;;;;;2.20;1.60;;;;;;;9.88;100.00;101321.81;8338689;28;20040;-64
2021/12/12 15:07:17;;;;;;;11.98;8.20;;;;;;;9.79;100.00;101323.38;8354081;28;20045;-64
2021/12/12 15:11:23;;;;;;;2.95;1.80;;;;;;;9.86;100.00;101323.78;8324202;28;20063;-64
2021/12/12 15:15:36;;;;;;;5.97;1.92;;;;;;;9.89;100.00;101323.56;8336426;28;20040;-64
2021/12/12 15:19:44;;;;;;;3.47;1.90;;;;;;;9.89;100.00;101328.94;8304170;28;20409;-64
2021/12/12 15:23:50;;;;;;;5.43;2.83;;;;;;;9.88;100.00;101338.00;8319615;28;20184;-64
2021/12/12 15:27:53;;;;;;;4.05;2.67;;;;;;;9.94;100.00;101337.53;8320302;28;20136;-64
2021/12/12 15:32:03;;;;;;;5.90;4.25;;;;;;;9.89;100.00;101347.84;8305658;28;20042;-63
2021/12/12 15:36:11;;;;;;;7.53;4.28;;;;;;;9.87;100.00;101347.97;8304684;28;20045;-63
2021/12/12 15:40:22;;;;;;;6.53;4.07;;;;;;;9.92;100.00;101350.34;8319364;28;20064;-62
2021/12/12 15:44:29;;;;;;;20.90;12.85;;;;;;;10.06;100.00;101358.22;8319706;28;20037;-62
2021/12/12 15:48:35;;;;;;;4.43;3.67;;;;;;;10.34;100.00;101363.28;8319468;28;20037;-62
2021/12/12 15:52:42;;;;;;;2.22;2.00;;;;;;;10.49;100.00;101359.38;8318864;28;20048;-64
2021/12/12 15:56:49;;;;;;;3.80;1.80;;;;;;;10.58;100.00;101364.06;8315737;28;20038;-61
2021/12/12 16:00:55;;;;;;;2.85;1.50;;;;;;;10.61;100.00;101363.81;8293751;28;20939;-61
2021/12/12 16:05:07;;;;;;;4.30;1.40;;;;;;;10.63;100.00;101361.88;8294786;28;20042;-61
2021/12/12 16:09:15;;;;;;;1.92;1.60;;;;;;;10.82;100.00;101370.25;8319381;28;20029;-61
2021/12/12 16:13:25;;;;;;;2.75;1.38;;;;;;;10.82;100.00;101375.66;8328404;28;20128;-61
2021/12/12 16:17:33;;;;;;;1.40;1.10;;;;;;;10.83;100.00;101371.97;8308736;28;20476;-62
2021/12/12 16:21:37;;;;;;;1.08;0.77;;;;;;;10.84;100.00;101376.41;8317375;28;20033;-61
2021/12/12 16:25:40;;;;;;;2.58;1.33;;;;;;;10.87;100.00;101384.28;8313869;28;20501;-62
2021/12/12 16:29:48;;;;;;;2.47;1.60;;;;;;;10.86;100.00;101387.97;8289795;28;20037;-62
2021/12/12 16:33:58;;;;;;;1.92;1.20;;;;;;;10.76;100.00;101381.56;8291602;28;20040;-62
2021/12/12 16:38:00;;;;;;;4.38;1.60;;;;;;;10.78;100.00;101381.44;8307671;28;20068;-62
2021/12/12 16:42:06;;;;;;;4.85;1.45;;;;;;;10.80;100.00;101383.03;8300945;28;20044;-61
2021/12/12 16:46:11;;;;;;;1.73;1.20;;;;;;;10.82;100.00;101386.50;8316394;28;20046;-62
2021/12/12 16:50:18;;;;;;;2.75;1.88;;;;;;;10.74;100.00;101391.63;8306759;28;20548;-62
2021/12/12 16:54:27;;;;;;;5.68;1.95;;;;;;;10.78;100.00;101394.97;8318098;28;20052;-62
2021/12/12 16:58:33;;;;;;;2.00;1.50;;;;;;;10.82;100.00;101388.31;8297795;28;20033;-62
2021/12/12 17:02:36;;;;;;;2.65;1.95;;;;;;;10.76;100.00;101397.78;8292048;28;20041;-62
2021/12/12 17:06:40;;;;;;;3.33;2.38;;;;;;;10.79;100.00;101402.97;8315204;28;20042;-62
2021/12/12 17:10:42;;;;;;;;;;;;;;;10.84;100.00;101399.91;8317798;28;20033;-62
2021/12/12 17:14:48;;;;;;;3.45;2.58;;;;;;;10.79;100.00;101392.13;8311640;28;20032;-62
2021/12/12 17:18:49;;;;;;;4.00;2.72;;;;;;;10.78;100.00;101406.66;8312517;28;20120;-62
2021/12/12 17:22:55;;;;;;;6.07;3.15;;;;;;;10.77;100.00;101410.31;8307621;28;20052;-62
2021/12/12 17:27:02;;;;;;;5.28;3.90;;;;;;;10.81;100.00;101417.25;8295021;28;20524;-62
2021/12/12 17:31:09;;;;;;;3.42;3.13;;;;;;;10.86;100.00;101406.91;8285914;28;20554;-62
2021/12/12 17:35:11;;;;;;;4.75;3.08;;;;;;;10.94;100.00;101409.88;8310207;28;20041;-62
2021/12/12 17:39:22;;;;;;;13.02;7.97;;;;;;;10.90;100.00;101411.09;8316104;28;20053;-61
2021/12/12 17:43:54;;;;;;;6.53;4.50;;;;;;;10.87;100.00;101426.69;8282911;28;20041;-62
2021/12/12 17:48:34;;;;;;;7.32;5.07;;;;;;;10.88;100.00;101423.88;8292578;28;20047;-62
2021/12/12 17:53:15;;;;;;;5.68;4.47;;;;;;;10.87;100.00;101426.69;8273459;28;20034;-62
2021/12/12 17:57:29;;;;;;;6.80;4.97;;;;;;;10.82;100.00;101429.75;8306709;28;20447;-62
2021/12/12 18:01:35;;;;;;;7.47;5.18;;;;;;;10.81;100.00;101433.47;8307861;28;20361;-62
2021/12/12 18:05:44;;;;;;;6.20;4.57;;;;;;;10.84;100.00;101433.22;8310968;28;20098;-62
2021/12/12 18:10:24;;;;;;;6.80;4.18;;;;;;;10.90;100.00;101427.34;8315526;28;20036;-62
2021/12/12 18:14:30;;;;;;;4.90;4.03;;;;;;;10.92;100.00;101430.75;8302231;28;20096;-62
2021/12/12 18:19:12;;;;;;;6.85;4.40;;;;;;;10.85;100.00;101434.06;8286742;28;20042;-62
2021/12/12 18:23:18;;;;;;;9.98;4.50;;;;;;;10.87;100.00;101441.09;8274138;28;20136;-62
2021/12/12 18:27:28;;;;;;;8.52;6.57;;;;;;;10.87;100.00;101438.41;8270758;28;20502;-62
2021/12/12 18:31:41;;;;;;;9.52;5.90;;;;;;;10.90;100.00;101443.56;8290836;28;20065;-62
2021/12/12 18:35:51;;;;;;;13.83;9.57;;;;;;;10.97;100.00;101444.81;8304212;28;20117;-62
2021/12/12 18:39:56;;;;;;;7.65;5.03;;;;;;;11.00;100.00;101441.84;8309030;28;20037;-62
2021/12/12 18:43:59;;;;;;;6.15;4.43;;;;;;;10.92;100.00;101444.28;8305615;28;20083;-62
2021/12/12 18:48:05;;;;;;;10.38;4.75;;;;;;;10.88;100.00;101448.22;8319402;28;20048;-62
2021/12/12 18:52:25;;;;;;;12.77;5.82;;;;;;;11.02;100.00;101452.56;8288003;28;20030;-62
2021/12/12 18:56:44;;;;;;;6.60;4.47;;;;;;;11.01;100.00;101462.50;8321629;28;20033;-62
2021/12/12 19:00:50;;;;;;;5.15;3.92;;;;;;;10.95;100.00;101462.16;8311378;28;20089;-62
2021/12/12 19:04:58;;;;;;;6.20;3.80;;;;;;;11.04;100.00;101473.09;8303928;28;20053;-62
2021/12/12 19:08:59;;;;;;;7.60;4.53;;;;;;;11.13;100.00;101449.88;8313501;28;20195;-62
2021/12/12 19:13:01;;;;;;;6.47;3.80;;;;;;;11.15;100.00;101465.00;8320634;28;20106;-62
2021/12/12 19:17:08;;;;;;;6.20;3.80;;;;;;;11.09;100.00;101470.03;8273536;28;20045;-62
2021/12/12 19:21:17;;;;;;;6.05;3.70;;;;;;;11.02;100.00;101475.06;8269635;28;20043;-62
2021/12/12 19:25:23;;;;;;;7.05;4.43;;;;;;;10.94;100.00;101482.91;8280508;28;20068;-62
2021/12/12 19:29:29;;;;;;;9.60;5.05;;;;;;;10.97;100.00;101482.69;8295062;28;20116;-62
2021/12/12 19:33:31;;;;;;;8.80;5.22;;;;;;;10.93;100.00;101485.75;8290709;28;20037;-62
2021/12/12 19:37:37;;;;;;;9.68;5.78;;;;;;;10.97;100.00;101498.03;8302516;28;20346;-62
2021/12/12 19:41:40;;;;;;;8.20;4.97;;;;;;;10.92;100.00;101500.25;8315165;28;20843;-62
2021/12/12 19:45:46;;;;;;;11.50;6.07;;;;;;;10.90;100.00;101492.25;8315202;28;20568;-62
2021/12/12 19:49:51;;;;;;;10.15;6.07;;;;;;;10.80;100.00;101495.81;8281124;28;20049;-62